createdAt,value
2022-11-15T00:00:54.186Z,9.29
2022-11-15T00:03:40.215Z,9.32
2022-11-15T00:06:26.634Z,9.34
2022-11-15T00:09:12.793Z,9.32
2022-11-15T00:11:58.525Z,9.34
2022-11-15T00:14:44.367Z,9.32
2022-11-15T00:17:30.982Z,9.33
2022-11-15T00:20:17.215Z,9.25
2022-11-15T00:23:05.582Z,9.21
2022-11-15T00:25:59.203Z,9.19
2022-11-15T00:28:45.702Z,9.16
2022-11-15T00:31:31.385Z,9.15
2022-11-15T00:34:17.121Z,9.21
2022-11-15T00:37:03.052Z,9.23
2022-11-15T00:39:49.503Z,9.27
2022-11-15T00:42:35.204Z,9.33
2022-11-15T00:45:21.017Z,9.35
2022-11-15T00:48:09.746Z,9.37
2022-11-15T00:50:55.558Z,9.33
2022-11-15T00:53:41.363Z,9.29
2022-11-15T00:56:27.348Z,9.29
2022-11-15T00:59:13.255Z,9.36
2022-11-15T01:01:58.324Z,9.38
2022-11-15T01:04:44.154Z,9.37
2022-11-15T01:07:29.334Z,9.41
2022-11-15T01:10:17.076Z,9.41
2022-11-15T01:13:03.136Z,9.46
2022-11-15T01:15:48.983Z,9.42
2022-11-15T01:18:35.285Z,9.41
2022-11-15T01:21:21.571Z,9.36
2022-11-15T01:24:07.803Z,9.37
2022-11-15T01:26:53.793Z,9.36
2022-11-15T01:29:39.883Z,9.40
2022-11-15T01:32:25.526Z,9.42
2022-11-15T01:35:11.715Z,9.39
2022-11-15T01:37:57.208Z,9.42
2022-11-15T01:40:42.894Z,9.43
2022-11-15T01:43:32.343Z,9.49
2022-11-15T01:46:36.877Z,9.52
2022-11-15T01:49:24.805Z,9.55
2022-11-15T01:52:17.864Z,9.56
2022-11-15T01:55:12.059Z,9.55
2022-11-15T01:58:05.391Z,9.46
2022-11-15T02:00:51.509Z,9.46
2022-11-15T02:04:01.877Z,9.53
2022-11-15T02:06:49.430Z,9.57
2022-11-15T02:09:37.803Z,9.66
2022-11-15T02:12:23.657Z,9.68
2022-11-15T02:15:09.851Z,9.67
2022-11-15T02:18:00.915Z,9.63
2022-11-15T02:21:07.090Z,9.56
2022-11-15T02:24:20.745Z,9.54
2022-11-15T02:27:12.377Z,9.57
2022-11-15T02:30:16.190Z,9.59
2022-11-15T02:33:08.662Z,9.59
2022-11-15T02:35:59.477Z,9.62
2022-11-15T02:39:20.782Z,9.59
2022-11-15T02:42:30.472Z,9.50
2022-11-15T02:45:24.327Z,9.54
2022-11-15T02:48:12.145Z,9.57
2022-11-15T02:50:58.597Z,9.58
2022-11-15T02:53:43.910Z,9.56
2022-11-15T02:56:29.427Z,9.55
2022-11-15T02:59:53.024Z,9.50
2022-11-15T03:03:00.398Z,9.44
2022-11-15T03:05:58.046Z,9.47
2022-11-15T03:09:11.864Z,9.49
2022-11-15T03:12:35.520Z,9.48
2022-11-15T03:15:38.404Z,9.46
2022-11-15T03:18:34.573Z,9.50
2022-11-15T03:21:22.204Z,9.51
2022-11-15T03:24:09.732Z,9.53
2022-11-15T03:26:56.949Z,9.50
2022-11-15T03:29:48.883Z,9.54
2022-11-15T03:32:39.861Z,9.52
2022-11-15T03:35:28.585Z,9.51
2022-11-15T03:38:23.827Z,9.49
2022-11-15T03:41:19.511Z,9.47
2022-11-15T03:44:17.628Z,9.47
2022-11-15T03:47:28.491Z,9.43
2022-11-15T03:50:20.698Z,9.45
2022-11-15T03:53:06.371Z,9.47
2022-11-15T03:55:51.731Z,9.43
2022-11-15T03:58:37.057Z,9.40
2022-11-15T04:01:22.556Z,9.39
2022-11-15T04:04:07.916Z,9.39
2022-11-15T04:06:53.238Z,9.41
2022-11-15T04:10:04.730Z,9.37
2022-11-15T04:12:50.404Z,9.38
2022-11-15T04:15:36.027Z,9.39
2022-11-15T04:18:21.329Z,9.42
2022-11-15T04:21:26.434Z,9.39
2022-11-15T04:24:14.395Z,9.39
2022-11-15T04:26:59.670Z,9.40
2022-11-15T04:29:45.177Z,9.43
2022-11-15T04:32:30.666Z,9.34
2022-11-15T04:35:16.030Z,9.36
2022-11-15T04:38:02.695Z,9.38
2022-11-15T04:40:47.857Z,9.42
2022-11-15T04:43:33.510Z,9.47
2022-11-15T04:46:19.138Z,9.47
2022-11-15T04:49:04.405Z,9.42
2022-11-15T04:51:50.516Z,9.43
2022-11-15T04:54:35.711Z,9.47
2022-11-15T04:57:21.072Z,9.51
2022-11-15T05:00:09.428Z,9.53
2022-11-15T05:03:13.425Z,9.52
2022-11-15T05:06:00.058Z,9.49
2022-11-15T05:08:45.431Z,9.46
2022-11-15T05:11:30.747Z,9.40
2022-11-15T05:14:16.615Z,9.38
2022-11-15T05:17:02.295Z,9.36
2022-11-15T05:19:47.543Z,9.37
2022-11-15T05:22:33.125Z,9.37
2022-11-15T05:25:19.348Z,9.35
2022-11-15T05:28:04.508Z,9.37
2022-11-15T05:30:50.126Z,9.37
2022-11-15T05:33:37.126Z,9.30
2022-11-15T05:36:39.938Z,9.28
2022-11-15T05:39:27.022Z,9.31
2022-11-15T05:42:16.520Z,9.29
2022-11-15T05:45:04.229Z,9.31
2022-11-15T05:47:51.576Z,9.26
2022-11-15T05:50:40.542Z,9.28
2022-11-15T05:53:27.174Z,9.28
2022-11-15T05:56:13.560Z,9.28
2022-11-15T05:59:00.298Z,9.31
2022-11-15T06:01:46.131Z,9.36
2022-11-15T06:04:31.411Z,9.39
2022-11-15T06:07:16.991Z,9.43
2022-11-15T06:10:02.683Z,9.49
2022-11-15T06:12:48.041Z,9.53
2022-11-15T06:15:35.358Z,9.53
2022-11-15T06:18:21.146Z,9.53
2022-11-15T06:21:07.083Z,9.48
2022-11-15T06:23:52.622Z,9.49
2022-11-15T06:26:38.077Z,9.50
2022-11-15T06:29:23.473Z,9.51
2022-11-15T06:32:08.717Z,9.46
2022-11-15T06:34:54.355Z,9.42
2022-11-15T06:37:41.880Z,9.39
2022-11-15T06:40:27.417Z,9.38
2022-11-15T06:43:13.056Z,9.36
2022-11-15T06:46:03.135Z,9.34
2022-11-15T06:48:48.835Z,9.38
2022-11-15T06:51:34.055Z,9.39
2022-11-15T06:54:19.576Z,9.42
2022-11-15T06:57:08.008Z,9.44
2022-11-15T06:59:53.594Z,9.41
2022-11-15T07:02:39.033Z,9.44
2022-11-15T07:05:24.546Z,9.45
2022-11-15T07:08:10.661Z,9.40
2022-11-15T07:10:59.854Z,9.39
2022-11-15T07:13:44.983Z,9.42
2022-11-15T07:16:30.198Z,9.42
2022-11-15T07:19:15.613Z,9.46
2022-11-15T07:22:00.989Z,9.49
2022-11-15T07:24:46.494Z,9.58
2022-11-15T07:27:32.125Z,9.62
2022-11-15T07:30:17.418Z,9.67
2022-11-15T07:33:02.867Z,9.71
2022-11-15T07:35:51.385Z,9.77
2022-11-15T07:38:42.495Z,9.77
2022-11-15T07:41:28.614Z,9.85
2022-11-15T07:44:14.531Z,9.90
2022-11-15T07:46:59.943Z,9.98
2022-11-15T07:49:47.057Z,10.01
2022-11-15T07:52:32.143Z,10.11
2022-11-15T07:55:17.487Z,10.15
2022-11-15T07:58:08.647Z,10.16
2022-11-15T08:00:53.654Z,10.22
2022-11-15T08:03:39.564Z,10.26
2022-11-15T08:06:25.162Z,10.34
2022-11-15T08:09:10.611Z,10.36
2022-11-15T08:11:55.977Z,10.46
2022-11-15T08:14:41.438Z,10.55
2022-11-15T08:17:26.973Z,10.61
2022-11-15T08:20:12.622Z,10.65
2022-11-15T08:22:59.539Z,10.71
2022-11-15T08:25:44.836Z,10.75
2022-11-15T08:28:30.692Z,10.82
2022-11-15T08:31:18.791Z,10.90
2022-11-15T08:34:05.395Z,10.97
2022-11-15T08:36:50.758Z,11.04
2022-11-15T08:39:36.125Z,11.12
2022-11-15T08:42:21.365Z,11.19
2022-11-15T08:45:08.328Z,11.24
2022-11-15T08:47:54.566Z,11.32
2022-11-15T08:50:44.061Z,11.40
2022-11-15T08:53:29.528Z,11.50
2022-11-15T08:56:16.306Z,11.57
2022-11-15T08:59:01.624Z,11.65
2022-11-15T09:01:47.072Z,11.71
2022-11-15T09:04:32.414Z,11.79
2022-11-15T09:07:18.057Z,11.88
2022-11-15T09:10:04.263Z,11.93
2022-11-15T09:12:49.625Z,12.02
2022-11-15T09:15:35.324Z,12.10
2022-11-15T09:18:23.410Z,12.21
2022-11-15T09:21:09.886Z,12.28
2022-11-15T09:23:55.450Z,12.35
2022-11-15T09:26:41.384Z,12.43
2022-11-15T09:29:27.041Z,12.51
2022-11-15T09:32:12.689Z,12.61
2022-11-15T09:34:58.594Z,12.65
2022-11-15T09:37:44.137Z,12.71
2022-11-15T09:40:32.172Z,12.77
2022-11-15T09:43:40.703Z,12.84
2022-11-15T09:46:44.265Z,12.91
2022-11-15T09:49:43.182Z,13.01
2022-11-15T09:52:19.667Z,13.10
2022-11-15T09:54:55.123Z,13.15
2022-11-15T09:57:31.393Z,13.18
2022-11-15T10:00:31.082Z,13.24
2022-11-15T10:02:51.231Z,13.31
2022-11-15T10:05:25.085Z,13.36
2022-11-15T10:08:14.837Z,13.41
2022-11-15T10:10:47.985Z,13.46
2022-11-15T10:13:30.856Z,13.52
2022-11-15T10:16:11.702Z,13.57
2022-11-15T10:19:11.916Z,13.65
2022-11-15T10:21:53.441Z,13.68
2022-11-15T10:24:25.062Z,13.74
2022-11-15T10:26:51.841Z,13.76
2022-11-15T10:29:26.891Z,13.78
2022-11-15T10:31:54.143Z,13.81
2022-11-15T10:34:23.422Z,13.84
2022-11-15T10:36:57.451Z,13.91
2022-11-15T10:39:24.770Z,13.95
2022-11-15T10:41:51.917Z,13.98
2022-11-15T10:44:19.564Z,14.01
2022-11-15T10:47:07.851Z,14.05
2022-11-15T10:49:35.812Z,14.13
2022-11-15T10:52:21.232Z,14.17
2022-11-15T10:55:01.140Z,14.23
2022-11-15T10:57:31.778Z,14.26
2022-11-15T11:00:08.620Z,14.31
2022-11-15T11:02:37.150Z,14.38
2022-11-15T11:05:25.507Z,14.44
2022-11-15T11:08:05.877Z,14.48
2022-11-15T11:10:50.915Z,14.54
2022-11-15T11:13:26.271Z,14.61
2022-11-15T11:16:14.785Z,14.65
2022-11-15T11:18:47.365Z,14.70
2022-11-15T11:21:46.399Z,14.75
2022-11-15T11:24:18.248Z,14.79
2022-11-15T11:26:59.120Z,14.82
2022-11-15T11:29:42.613Z,14.89
2022-11-15T11:32:35.528Z,14.99
2022-11-15T11:35:25.754Z,15.08
2022-11-15T11:37:58.835Z,15.15
2022-11-15T11:40:44.458Z,15.20
2022-11-15T11:43:45.417Z,15.23
2022-11-15T11:46:21.404Z,15.30
2022-11-15T11:49:14.979Z,15.36
2022-11-15T11:52:08.797Z,15.45
2022-11-15T11:54:46.660Z,15.54
2022-11-15T11:57:30.801Z,15.58
2022-11-15T12:00:06.171Z,15.66
2022-11-15T12:03:08.837Z,15.72
2022-11-15T12:05:43.105Z,15.79
2022-11-15T12:08:36.933Z,15.85
2022-11-15T12:11:18.515Z,15.91
2022-11-15T12:13:49.200Z,15.98
2022-11-15T12:16:21.224Z,16.01
2022-11-15T12:18:54.652Z,16.07
2022-11-15T12:21:38.672Z,16.15
2022-11-15T12:24:19.797Z,16.22
2022-11-15T12:27:04.673Z,16.29
2022-11-15T12:29:53.930Z,16.36
2022-11-15T12:32:33.957Z,16.42
2022-11-15T12:35:02.930Z,16.50
2022-11-15T12:37:45.136Z,16.56
2022-11-15T12:40:34.634Z,16.62
2022-11-15T12:43:16.655Z,16.73
2022-11-15T12:45:45.940Z,16.83
2022-11-15T12:48:19.121Z,16.88
2022-11-15T12:50:51.845Z,16.96
2022-11-15T12:53:28.735Z,17.03
2022-11-15T12:56:17.731Z,17.09
2022-11-15T12:59:03.437Z,17.11
2022-11-15T13:01:51.492Z,17.19
2022-11-15T13:04:22.616Z,17.31
2022-11-15T13:07:01.999Z,17.38
2022-11-15T13:09:35.244Z,17.44
2022-11-15T13:12:15.960Z,17.44
2022-11-15T13:14:47.270Z,17.47
2022-11-15T13:17:19.699Z,17.43
2022-11-15T13:19:58.247Z,17.39
2022-11-15T13:22:43.976Z,17.38
2022-11-15T13:25:40.857Z,17.28
2022-11-15T13:28:16.574Z,17.28
2022-11-15T13:30:59.096Z,17.25
2022-11-15T13:33:35.926Z,17.20
2022-11-15T13:36:25.977Z,17.15
2022-11-15T13:39:03.276Z,17.02
2022-11-15T13:41:33.873Z,16.98
2022-11-15T13:44:02.695Z,16.92
2022-11-15T13:46:34.113Z,16.85
2022-11-15T13:49:03.834Z,16.73
2022-11-15T13:51:50.416Z,16.56
2022-11-15T13:54:24.844Z,16.49
2022-11-15T13:56:57.010Z,16.38
2022-11-15T13:59:30.236Z,16.33
2022-11-15T14:02:22.718Z,16.24
2022-11-15T14:04:54.877Z,16.17
2022-11-15T14:07:25.341Z,16.06
2022-11-15T14:09:52.775Z,15.98
2022-11-15T14:12:33.283Z,15.86
2022-11-15T14:15:03.784Z,15.80
2022-11-15T14:17:30.523Z,15.73
2022-11-15T14:19:58.621Z,15.64
2022-11-15T14:22:30.599Z,15.52
2022-11-15T14:25:16.340Z,15.46
2022-11-15T14:27:45.460Z,15.36
2022-11-15T14:30:17.508Z,15.21
2022-11-15T14:32:50.783Z,15.01
2022-11-15T14:35:22.041Z,14.93
2022-11-15T14:37:54.238Z,14.78
2022-11-15T14:40:23.975Z,14.71
2022-11-15T14:42:51.214Z,14.60
2022-11-15T14:45:20.297Z,14.47
2022-11-15T14:47:47.358Z,14.24
2022-11-15T14:50:16.425Z,14.13
2022-11-15T14:52:44.314Z,14.01
2022-11-15T14:55:33.576Z,13.82
2022-11-15T14:58:00.566Z,13.70
2022-11-15T15:00:32.364Z,13.61
2022-11-15T15:03:03.630Z,13.61
2022-11-15T15:05:38.456Z,13.49
2022-11-15T15:08:07.018Z,13.35
2022-11-15T15:10:40.734Z,13.19
2022-11-15T15:13:19.708Z,13.12
2022-11-15T15:15:47.580Z,13.04
2022-11-15T15:18:14.469Z,12.94
2022-11-15T15:20:42.814Z,12.84
2022-11-15T15:23:18.540Z,12.70
2022-11-15T15:25:46.700Z,12.69
2022-11-15T15:28:14.574Z,12.70
2022-11-15T15:30:41.652Z,12.63
2022-11-15T15:33:08.497Z,12.52
2022-11-15T15:35:36.710Z,12.50
2022-11-15T15:38:04.484Z,12.49
2022-11-15T15:40:33.810Z,12.41
2022-11-15T15:43:01.076Z,12.35
2022-11-15T15:45:28.841Z,12.34
2022-11-15T15:47:56.161Z,12.31
2022-11-15T15:50:24.676Z,12.26
2022-11-15T15:52:54.035Z,12.24
2022-11-15T15:55:21.099Z,12.22
2022-11-15T15:57:48.616Z,12.19
2022-11-15T16:00:16.321Z,12.13
2022-11-15T16:02:43.718Z,12.15
2022-11-15T16:05:11.693Z,12.21
2022-11-15T16:07:38.636Z,12.26
2022-11-15T16:10:19.670Z,12.13
2022-11-15T16:12:47.733Z,12.08
2022-11-15T16:15:14.785Z,12.07
2022-11-15T16:17:53.922Z,12.02
2022-11-15T16:20:40.498Z,12.08
2022-11-15T16:23:09.972Z,12.04
2022-11-15T16:25:43.439Z,12.07
2022-11-15T16:28:26.038Z,12.04
2022-11-15T16:31:09.933Z,11.95
2022-11-15T16:33:37.676Z,11.95
2022-11-15T16:36:06.301Z,11.99
2022-11-15T16:38:34.012Z,11.96
2022-11-15T16:41:01.751Z,11.92
2022-11-15T16:43:28.656Z,11.89
2022-11-15T16:45:55.744Z,11.87
2022-11-15T16:48:25.580Z,11.85
2022-11-15T16:50:56.952Z,11.83
2022-11-15T16:53:24.230Z,11.82
2022-11-15T16:55:51.112Z,11.82
2022-11-15T16:58:17.939Z,11.80
2022-11-15T17:00:44.838Z,11.83
2022-11-15T17:03:12.018Z,11.83
2022-11-15T17:05:38.831Z,11.81
2022-11-15T17:08:06.536Z,11.77
2022-11-15T17:10:33.313Z,11.71
2022-11-15T17:13:00.543Z,11.71
2022-11-15T17:15:27.754Z,11.70
2022-11-15T17:17:55.411Z,11.68
2022-11-15T17:20:25.545Z,11.65
2022-11-15T17:22:53.057Z,11.61
2022-11-15T17:25:20.508Z,11.55
2022-11-15T17:27:47.408Z,11.48
2022-11-15T17:30:20.251Z,11.45
2022-11-15T17:32:50.151Z,11.40
2022-11-15T17:35:16.921Z,11.29
2022-11-15T17:37:43.910Z,11.13
2022-11-15T17:40:11.230Z,10.98
2022-11-15T17:42:41.185Z,10.96
2022-11-15T17:45:10.440Z,11.03
2022-11-15T17:47:37.828Z,11.02
2022-11-15T17:50:04.940Z,11.02
2022-11-15T17:52:31.747Z,11.04
2022-11-15T17:54:58.536Z,11.05
2022-11-15T17:57:25.864Z,11.00
2022-11-15T17:59:52.777Z,10.97
2022-11-15T18:02:19.635Z,10.92
2022-11-15T18:04:46.485Z,10.77
2022-11-15T18:07:14.188Z,10.72
2022-11-15T18:09:44.100Z,10.73
2022-11-15T18:12:12.162Z,10.76
2022-11-15T18:14:39.351Z,10.78
2022-11-15T18:17:06.720Z,10.77
2022-11-15T18:19:33.797Z,10.74
2022-11-15T18:22:01.550Z,10.76
2022-11-15T18:24:42.919Z,10.78
2022-11-15T18:27:10.251Z,10.83
2022-11-15T18:29:38.179Z,10.84
2022-11-15T18:32:11.799Z,10.83
2022-11-15T18:34:41.367Z,10.83
2022-11-15T18:37:08.150Z,10.78
2022-11-15T18:39:35.328Z,10.74
2022-11-15T18:42:02.498Z,10.76
2022-11-15T18:44:30.431Z,10.78
2022-11-15T18:46:57.554Z,10.78
2022-11-15T18:49:24.434Z,10.76
2022-11-15T18:51:51.231Z,10.72
2022-11-15T18:54:19.381Z,10.59
2022-11-15T18:56:47.090Z,10.54
2022-11-15T18:59:14.849Z,10.41
2022-11-15T19:01:44.251Z,10.30
2022-11-15T19:04:13.588Z,10.28
2022-11-15T19:06:42.460Z,10.22
2022-11-15T19:09:11.129Z,10.22
2022-11-15T19:11:40.118Z,10.20
2022-11-15T19:14:09.533Z,10.15
2022-11-15T19:16:52.353Z,10.11
2022-11-15T19:19:25.205Z,10.06
2022-11-15T19:21:52.976Z,10.00
2022-11-15T19:24:19.838Z,10.03
2022-11-15T19:26:47.105Z,9.97
2022-11-15T19:29:14.289Z,9.88
2022-11-15T19:31:41.991Z,9.90
2022-11-15T19:34:09.388Z,9.86
2022-11-15T19:36:43.627Z,9.79
2022-11-15T19:39:13.148Z,9.72
2022-11-15T19:41:42.602Z,9.68
2022-11-15T19:44:11.500Z,9.71
2022-11-15T19:46:39.367Z,9.75
2022-11-15T19:49:08.131Z,9.74
2022-11-15T19:51:34.948Z,9.70
2022-11-15T19:54:06.438Z,9.74
2022-11-15T19:56:34.619Z,9.69
2022-11-15T19:59:02.246Z,9.71
2022-11-15T20:01:32.331Z,9.80
2022-11-15T20:04:00.413Z,9.79
2022-11-15T20:06:30.889Z,9.79
2022-11-15T20:08:58.906Z,9.79
2022-11-15T20:11:27.570Z,9.79
2022-11-15T20:13:58.672Z,9.81
2022-11-15T20:16:25.727Z,9.81
2022-11-15T20:18:53.319Z,9.81
2022-11-15T20:21:21.775Z,9.79
2022-11-15T20:23:50.942Z,9.79
2022-11-15T20:26:19.319Z,9.78
2022-11-15T20:28:48.186Z,9.80
2022-11-15T20:31:15.584Z,9.81
2022-11-15T20:33:42.382Z,9.74
2022-11-15T20:36:15.666Z,9.72
2022-11-15T20:38:43.816Z,9.79
2022-11-15T20:41:11.899Z,9.85
2022-11-15T20:43:38.774Z,9.88
2022-11-15T20:46:05.632Z,9.83
2022-11-15T20:48:32.845Z,9.67
2022-11-15T20:51:14.507Z,9.59
2022-11-15T20:53:43.400Z,9.46
2022-11-15T20:56:16.210Z,9.41
2022-11-15T20:58:44.777Z,9.46
2022-11-15T21:01:15.236Z,9.51
2022-11-15T21:03:42.361Z,9.60
2022-11-15T21:06:10.035Z,9.58
2022-11-15T21:08:56.025Z,9.59
2022-11-15T21:11:43.489Z,9.59
2022-11-15T21:14:10.281Z,9.61
2022-11-15T21:16:38.139Z,9.64
2022-11-15T21:19:06.572Z,9.63
2022-11-15T21:21:34.087Z,9.67
2022-11-15T21:24:06.773Z,9.64
2022-11-15T21:26:34.504Z,9.66
2022-11-15T21:29:02.005Z,9.74
2022-11-15T21:31:29.334Z,9.79
2022-11-15T21:33:56.075Z,9.78
2022-11-15T21:36:25.093Z,9.78
2022-11-15T21:38:51.872Z,9.78
2022-11-15T21:41:18.674Z,9.82
2022-11-15T21:43:45.453Z,9.87
2022-11-15T21:46:12.203Z,9.90
2022-11-15T21:48:38.955Z,9.91
2022-11-15T21:51:08.428Z,9.91
2022-11-15T21:53:35.554Z,9.95
2022-11-15T21:56:03.497Z,9.95
2022-11-15T21:58:31.386Z,9.89
2022-11-15T22:01:17.499Z,9.84
2022-11-15T22:03:45.103Z,9.88
2022-11-15T22:06:17.424Z,9.90
2022-11-15T22:08:45.747Z,9.94
2022-11-15T22:11:12.854Z,9.88
2022-11-15T22:13:39.880Z,9.89
2022-11-15T22:16:07.467Z,9.92
2022-11-15T22:18:34.612Z,9.98
2022-11-15T22:21:04.536Z,10.02
2022-11-15T22:23:33.405Z,10.01
2022-11-15T22:26:01.147Z,10.07
2022-11-15T22:28:28.230Z,10.09
2022-11-15T22:30:55.422Z,10.06
2022-11-15T22:33:25.770Z,10.11
2022-11-15T22:35:53.387Z,10.14
2022-11-15T22:38:20.313Z,10.16
2022-11-15T22:40:47.383Z,10.16
2022-11-15T22:43:16.139Z,10.10
2022-11-15T22:45:51.797Z,10.05
2022-11-15T22:48:20.843Z,10.06
2022-11-15T22:50:47.982Z,10.08
2022-11-15T22:53:14.803Z,10.03
2022-11-15T22:55:42.137Z,10.05
2022-11-15T22:58:09.436Z,10.06
2022-11-15T23:00:36.752Z,10.07
2022-11-15T23:03:04.163Z,10.09
2022-11-15T23:05:31.143Z,10.11
2022-11-15T23:07:57.951Z,10.13
2022-11-15T23:10:43.494Z,10.14
2022-11-15T23:13:18.973Z,10.18
2022-11-15T23:16:09.788Z,10.19
2022-11-15T23:18:38.926Z,10.21
2022-11-15T23:21:14.469Z,10.25
2022-11-15T23:23:41.420Z,10.26
2022-11-15T23:26:08.637Z,10.28
2022-11-15T23:28:36.157Z,10.32
2022-11-15T23:31:26.345Z,10.31
2022-11-15T23:33:59.202Z,10.27
2022-11-15T23:36:28.008Z,10.27
2022-11-15T23:38:55.441Z,10.28
2022-11-15T23:41:23.904Z,10.29
2022-11-15T23:43:51.614Z,10.31
2022-11-15T23:46:18.618Z,10.28
2022-11-15T23:48:45.394Z,10.27
2022-11-15T23:51:12.263Z,10.27
2022-11-15T23:53:39.118Z,10.28
2022-11-15T23:56:15.210Z,10.27
2022-11-15T23:58:43.325Z,10.26
